Sigas Ingrid — VRCQ6 — position and weather

sailwx.info

Track history (hours):
 
Tides and Currents Weather Stations Pressure Air Temp Water Temp Dewpoint Dewpoint Depression Visibility Wind Speed Wind Dir Waves Ship Positions

Sigas Ingrid

Last reported at 2016-Sep-25 04:18 UTC. Time now 2016-Sep-25 20:56 UTC.
Position N 01°15' E 104°09'.

Length 100 m; draft 4.6 m.

Type: Ship (hazmat cat B). MMSI: 477658800.

Date/timePositionNaut miles runAvg speedWind from/ knotsBaromVisibWave heightAir tempDewpointWater temp
2016-Sep-25 04:18N 01°15' E 104°09'34 8.5
2016-Sep-25 00:21N 01°12' E 103°36'4 2.2
2016-Sep-24 22:33N 01°14' E 103°39'0 0.1
2016-Sep-24 21:21N 01°14' E 103°39'0 0.0
2016-Sep-24 19:30N 01°14' E 103°39'0 0.0
2016-Sep-24 17:30N 01°14' E 103°39'0 0.0
2016-Sep-24 16:21N 01°14' E 103°39'0 0.0
2016-Sep-24 14:12N 01°14' E 103°39'0 0.1
2016-Sep-24 12:33N 01°14' E 103°39'4 2.2
2016-Sep-24 10:33N 01°09' E 103°38'1 0.8
2016-Sep-24 09:33N 01°10' E 103°38'86 2.9
2016-Sep-23 03:32N 01°50' E 102°21'  
Track history (hours):
 
Tides and Currents Weather Stations Pressure Air Temp Water Temp Dewpoint Dewpoint Depression Visibility Wind Speed Wind Dir Waves Ship Positions

Sigas Ingrid

Last reported at 2016-Sep-25 04:18 UTC. Time now 2016-Sep-25 20:56 UTC.
Position N 01°15' E 104°09'.

Length 100 m; draft 4.6 m.

Type: Ship (hazmat cat B). MMSI: 477658800.

Date/timePositionNaut miles runAvg speedWind from/ knotsBaromVisibWave heightAir tempDewpointWater temp
2016-Sep-25 04:18N 01°15' E 104°09'34 8.5
2016-Sep-25 00:21N 01°12' E 103°36'4 2.2
2016-Sep-24 22:33N 01°14' E 103°39'0 0.1
2016-Sep-24 21:21N 01°14' E 103°39'0 0.0
2016-Sep-24 19:30N 01°14' E 103°39'0 0.0
2016-Sep-24 17:30N 01°14' E 103°39'0 0.0
2016-Sep-24 16:21N 01°14' E 103°39'0 0.0
2016-Sep-24 14:12N 01°14' E 103°39'0 0.1
2016-Sep-24 12:33N 01°14' E 103°39'4 2.2
2016-Sep-24 10:33N 01°09' E 103°38'1 0.8
2016-Sep-24 09:33N 01°10' E 103°38'86 2.9
2016-Sep-23 03:32N 01°50' E 102°21'  

Dump ship's entire track history